Flight Track Log - Related Links

Times and Time Zones

All times are in EDT time to prevent confusion due to time zone crossing. See the DAL3698 flight status page for this flight to view local times or setup timezone preferences in your user account.

Time Position Orientation Groundspeed Altitude Reporting Facility
EDT Latitude Longitude Course Direction KTS MPH feet Rate Location/Type
Fri 07:26:08 AM 42.8328 -84.5217 276° West 224 258 4,600  Level Cleveland Center
Fri 07:27:08 AM 42.8464 -84.6075 282° West 225 259 6,400 2,350 Climbing Cleveland Center
Fri 07:28:08 AM 42.8450 -84.7067 269° West 249 287 9,300 2,649 Climbing Cleveland Center
Fri 07:28:25 AM 42.8453 -84.7186 272° West 264 304 9,800 1,291 Climbing Chicago Center
Fri 07:29:27 AM 42.8378 -84.8314 265° West 300 345 11,000 1,548 Climbing Chicago Center
Fri 07:30:29 AM 42.8297 -84.9578 265° West 330 380 13,000 2,000 Climbing Chicago Center
Fri 07:31:00 AM 42.7655 -85.3015 276° West  Level FlightAware Approximate
Fri 07:31:30 AM 42.8167 -85.1136 264° West 343 395 15,100  Level Chicago Center
Fri 07:32:32 AM 42.8411 -85.2436 284° West 355 409 16,700 1,500 Climbing Chicago Center
Fri 07:33:34 AM 42.8772 -85.3664 292° West 351 404 18,200 1,122 Climbing Chicago Center
Fri 07:34:35 AM 42.9111 -85.4850 291° West 345 397 19,000 443 Climbing Chicago Center
Fri 07:35:36 AM 42.9461 -85.6094 291° West 353 406 19,100 595 Climbing Chicago Center
Fri 07:36:36 AM 42.9822 -85.7369 291° West 358 412 20,200 1,016 Climbing Chicago Center
Fri 07:37:40 AM 43.0181 -85.8647 291° West 362 417 21,200 1,008 Climbing Chicago Center
Fri 07:38:41 AM 43.0614 -86.0078 293° West 361 415 22,300 984 Climbing Chicago Center
Fri 07:39:42 AM 43.0947 -86.1392 289° West 370 426 23,200 823 Climbing Chicago Center
Fri 07:40:45 AM 43.1314 -86.2731 291° West 375 432 24,000 780 Climbing Chicago Center
Fri 07:41:45 AM 43.1681 -86.4033 291° West 371 427 24,800 780 Climbing Chicago Center
Fri 07:42:48 AM 43.2386 -86.5106 312° West 381 438 25,600 677 Climbing Chicago Center
Fri 07:43:49 AM 43.3336 -86.6283 318° Northwest 385 443 26,200 537 Climbing Chicago Center
Fri 07:44:51 AM 43.4147 -86.7281 318° Northwest 389 448 26,700 488 Climbing Chicago Center
Fri 07:45:52 AM 43.4947 -86.8300 317° Northwest 391 450 27,200 492 Climbing Chicago Center
Fri 07:46:53 AM 43.5756 -86.9306 318° Northwest 392 451 27,700 519 Climbing Chicago Center
Fri 07:47:36 AM 43.6397 -87.0117 318° Northwest 390 449 28,100 519 Climbing Minneapolis Center
Fri 07:48:37 AM 43.7194 -87.1125 318° Northwest 390 449 28,600 492 Climbing Minneapolis Center
Fri 07:49:38 AM 43.7992 -87.2133 318° Northwest 390 449 29,100 492 Climbing Minneapolis Center
Fri 07:50:39 AM 43.8850 -87.3222 318° Northwest 390 449 29,600 492 Climbing Minneapolis Center
Fri 07:51:40 AM 43.9633 -87.4222 317° Northwest 386 444 30,100 492 Climbing Minneapolis Center
Fri 07:52:41 AM 44.0367 -87.5289 314° West 382 440 30,600 488 Climbing Minneapolis Center
Fri 07:53:43 AM 44.0700 -87.6678 289° West 377 434 31,100 488 Climbing Minneapolis Center
Fri 07:54:44 AM 44.1028 -87.8056 288° West 377 434 31,600 443 Climbing Minneapolis Center
Fri 07:55:45 AM 44.1361 -87.9439 289° West 378 435 32,000 197 Climbing Minneapolis Center
Fri 07:56:46 AM 44.2025 -88.0569 309° West 381 438 32,000  Level Minneapolis Center
Fri 07:57:47 AM 44.2833 -88.1572 318° Northwest 388 447 32,000  Level Minneapolis Center
Fri 07:58:48 AM 44.3786 -88.2650 321° Northwest 380 437 32,000  Level Minneapolis Center
Fri 07:59:49 AM 44.4497 -88.3639 315° West 362 417 32,000  Level Minneapolis Center
Fri 08:00:51 AM 44.4786 -88.5008 287° West 366 421 32,000  Level Minneapolis Center
Fri 08:01:52 AM 44.5000 -88.6403 282° West 367 422 32,000  Level Minneapolis Center
Fri 08:02:53 AM 44.5217 -88.7806 282° West 368 423 32,000  Level Minneapolis Center
Fri 08:04:06 AM 44.5433 -88.9231 282° West 373 429 32,000  Level Minneapolis Center
Fri 08:05:08 AM 44.5689 -89.0936 282° West 381 438 32,000  Level Minneapolis Center
Fri 08:06:09 AM 44.5950 -89.2664 282° West 388 447 32,000  Level Minneapolis Center
Fri 08:07:10 AM 44.6175 -89.4147 282° West 388 447 32,000  Level Minneapolis Center
Fri 08:08:11 AM 44.6394 -89.5661 282° West 395 455 32,000  Level Minneapolis Center
Fri 08:09:12 AM 44.6606 -89.7167 281° West 394 453 32,000  Level Minneapolis Center
Fri 08:10:14 AM 44.6819 -89.8694 281° West 397 457 32,000  Level Minneapolis Center
Fri 08:11:15 AM 44.7058 -90.0225 282° West 400 460 32,000  Level Minneapolis Center
Fri 08:12:16 AM 44.7314 -90.1747 283° West 401 461 32,000  Level Minneapolis Center
Fri 08:13:17 AM 44.7553 -90.3275 282° West 400 460 32,000 -45 Level Minneapolis Center
Fri 08:14:30 AM 44.7800 -90.4789 283° West 399 459 31,900 -800 Descending Minneapolis Center
Fri 08:15:32 AM 44.8089 -90.6686 282° West 410 472 30,200 -1,610 Descending Minneapolis Center
Fri 08:16:33 AM 44.8356 -90.8339 283° West 430 495 28,600 -1,869 Descending Minneapolis Center
Fri 08:17:34 AM 44.8622 -91.0256 281° West 421 484 26,400 -2,049 Descending Minneapolis Center
Fri 08:18:36 AM 44.8856 -91.1800 282° West 410 472 24,400 -1,951 Descending Minneapolis Center
Fri 08:19:37 AM 44.9103 -91.3342 283° West 405 466 22,400 -1,967 Descending Minneapolis Center
Fri 08:20:38 AM 44.9303 -91.4881 280° West 403 464 20,400 -1,805 Descending Minneapolis Center
Fri 08:21:40 AM 44.9547 -91.6403 283° West 401 461 18,700 -1,610 Descending Minneapolis Center
Fri 08:22:41 AM 44.9792 -91.7881 283° West 392 451 17,100 -1,623 Descending Minneapolis Center
Fri 08:23:42 AM 45.0000 -91.9353 281° West 385 443 15,400 -1,659 Descending Minneapolis Center
Fri 08:24:44 AM 45.0200 -92.0794 281° West 377 434 13,700 -1,902 Descending Minneapolis Center
Fri 08:25:45 AM 45.0447 -92.2522 282° West 374 430 11,500 -1,268 Descending Minneapolis Center
Fri 08:26:47 AM 45.0333 -92.3861 263° West 345 397 11,100 -244 Descending Minneapolis Center
Fri 08:27:48 AM 45.0139 -92.5150 258° West 339 390 11,000 -49 Descending Minneapolis Center
Fri 08:28:49 AM 44.9933 -92.6450 257° West 341 392 11,000  Level Minneapolis Center
Fri 08:29:51 AM 44.9725 -92.7733 257° West 338 389 11,000 -390 Level Minneapolis Center
Fri 08:30:52 AM 44.9533 -92.8931 257° West 315 362 10,200 -878 Descending Minneapolis Center
Fri 08:31:54 AM 44.9358 -93.0003 257° West 285 328 9,200 -1,073 Descending Minneapolis Center
Fri 08:32:55 AM 44.9486 -93.1203 279° West 278 320 8,000 -1,279 Descending Minneapolis Center
Fri 08:33:56 AM 44.9889 -93.2133 301° West 281 323 6,600 -1,415 Descending Minneapolis Center
Fri 08:34:58 AM 45.0303 -93.3044 303° West 279 321 5,100 -976 Descending Minneapolis Center
Fri 08:35:59 AM 45.0711 -93.4039 300° West 292 336 4,600 -541 Descending Minneapolis Center
Fri 08:37:00 AM 45.0758 -93.4944 274° West 248 285 4,000 -293 Descending Minneapolis Center
Fri 08:38:02 AM 45.0269 -93.4811 169° South 189 217 4,000  Level Minneapolis Center
Fri 08:39:04 AM 44.9872 -93.4431 146° Southeast 174 200 4,000 -341 Level Minneapolis Center
Fri 08:40:05 AM 44.9592 -93.3725 119° Southeast 173 199 3,300 -689 Descending Minneapolis Center

Login

Don't have an account? Register now (free) for customized features, flight alerts, and more!